createdAt,value
2022-09-03T00:02:22.448Z,17.86
2022-09-03T00:05:20.464Z,18.53
2022-09-03T00:07:57.130Z,18.62
2022-09-03T00:10:47.902Z,18.51
2022-09-03T00:13:43.465Z,18.44
2022-09-03T00:16:19.979Z,18.46
2022-09-03T00:18:59.811Z,18.64
2022-09-03T00:21:45.123Z,18.41
2022-09-03T00:24:18.016Z,18.10
2022-09-03T00:26:55.559Z,17.94
2022-09-03T00:29:39.022Z,17.72
2022-09-03T00:32:19.283Z,17.73
2022-09-03T00:34:53.340Z,17.82
2022-09-03T00:37:25.460Z,18.08
2022-09-03T00:39:57.557Z,17.77
2022-09-03T00:42:57.990Z,17.64
2022-09-03T00:45:35.463Z,17.50
2022-09-03T00:48:31.467Z,17.59
2022-09-03T00:51:34.731Z,17.61
2022-09-03T00:54:32.360Z,17.68
2022-09-03T00:57:31.714Z,17.20
2022-09-03T01:00:10.605Z,17.23
2022-09-03T01:02:58.585Z,16.87
2022-09-03T01:05:42.929Z,17.23
2022-09-03T01:08:32.744Z,17.20
2022-09-03T01:11:30.555Z,17.57
2022-09-03T01:14:13.311Z,17.71
2022-09-03T01:16:57.267Z,17.79
2022-09-03T01:19:48.143Z,17.59
2022-09-03T01:22:51.681Z,17.29
2022-09-03T01:25:44.867Z,17.43
2022-09-03T01:28:49.584Z,17.38
2022-09-03T01:31:58.561Z,17.43
2022-09-03T01:34:43.585Z,17.03
2022-09-03T01:37:29.061Z,17.21
2022-09-03T01:40:18.107Z,17.57
2022-09-03T01:43:03.585Z,17.08
2022-09-03T01:45:52.469Z,16.96
2022-09-03T01:48:31.910Z,17.12
2022-09-03T01:51:23.228Z,16.97
2022-09-03T01:54:31.107Z,17.32
2022-09-03T01:57:34.715Z,17.43
2022-09-03T02:00:14.284Z,17.50
2022-09-03T02:02:51.990Z,17.60
2022-09-03T02:05:26.480Z,17.72
2022-09-03T02:08:13.916Z,17.60
2022-09-03T02:10:55.410Z,17.32
2022-09-03T02:13:36.574Z,17.46
2022-09-03T02:16:13.109Z,17.49
2022-09-03T02:18:47.088Z,17.42
2022-09-03T02:21:20.612Z,17.02
2022-09-03T02:23:50.110Z,17.07
2022-09-03T02:26:26.318Z,17.00
2022-09-03T02:28:56.884Z,17.33
2022-09-03T02:31:29.435Z,17.50
2022-09-03T02:34:01.020Z,17.59
2022-09-03T02:36:38.487Z,17.14
2022-09-03T02:39:08.776Z,17.11
2022-09-03T02:41:41.302Z,17.37
2022-09-03T02:44:26.379Z,17.16
2022-09-03T02:47:03.355Z,17.02
2022-09-03T02:49:33.863Z,16.69
2022-09-03T02:52:10.281Z,16.54
2022-09-03T02:54:40.901Z,16.56
2022-09-03T02:57:14.837Z,17.07
2022-09-03T02:59:46.105Z,17.41
2022-09-03T03:02:17.387Z,17.40
2022-09-03T03:04:48.075Z,17.16
2022-09-03T03:07:20.933Z,17.42
2022-09-03T03:09:50.897Z,17.42
2022-09-03T03:12:24.124Z,17.48
2022-09-03T03:14:53.927Z,17.07
2022-09-03T03:17:24.677Z,17.31
2022-09-03T03:19:55.317Z,17.39
2022-09-03T03:22:26.388Z,17.34
2022-09-03T03:24:57.446Z,17.21
2022-09-03T03:27:28.621Z,17.07
2022-09-03T03:29:58.672Z,17.09
2022-09-03T03:32:28.913Z,17.32
2022-09-03T03:35:00.860Z,17.28
2022-09-03T03:37:31.874Z,17.27
2022-09-03T03:40:04.366Z,17.01
2022-09-03T03:42:37.639Z,17.06
2022-09-03T03:45:10.757Z,17.09
2022-09-03T03:47:39.998Z,16.91
2022-09-03T03:50:11.681Z,16.61
2022-09-03T03:52:44.506Z,16.97
2022-09-03T03:55:17.269Z,17.08
2022-09-03T03:57:46.808Z,17.02
2022-09-03T04:00:18.459Z,16.61
2022-09-03T04:02:51.184Z,16.67
2022-09-03T04:05:23.139Z,16.70
2022-09-03T04:07:54.307Z,16.50
2022-09-03T04:10:25.425Z,16.48
2022-09-03T04:12:59.512Z,16.42
2022-09-03T04:15:28.852Z,16.18
2022-09-03T04:18:02.472Z,16.57
2022-09-03T04:20:31.365Z,16.42
2022-09-03T04:23:03.973Z,16.62
2022-09-03T04:25:34.048Z,16.61
2022-09-03T04:28:08.474Z,16.53
2022-09-03T04:30:40.235Z,16.39
2022-09-03T04:33:15.985Z,16.51
2022-09-03T04:35:46.792Z,16.59
2022-09-03T04:38:17.871Z,16.76
2022-09-03T04:40:53.693Z,16.49
2022-09-03T04:43:25.011Z,16.69
2022-09-03T04:45:58.808Z,16.80
2022-09-03T04:48:28.963Z,16.58
2022-09-03T04:51:08.720Z,16.77
2022-09-03T04:53:43.040Z,16.92
2022-09-03T04:56:20.395Z,16.90
2022-09-03T04:58:56.142Z,16.83
2022-09-03T05:01:28.312Z,17.14
2022-09-03T05:04:00.051Z,17.07
2022-09-03T05:06:32.282Z,16.94
2022-09-03T05:09:04.487Z,16.90
2022-09-03T05:11:40.581Z,17.00
2022-09-03T05:14:13.115Z,17.03
2022-09-03T05:16:42.224Z,17.08
2022-09-03T05:19:14.596Z,16.88
2022-09-03T05:21:44.111Z,17.29
2022-09-03T05:24:15.565Z,17.79
2022-09-03T05:26:45.609Z,17.61
2022-09-03T05:29:16.628Z,17.69
2022-09-03T05:31:47.610Z,17.81
2022-09-03T05:34:19.749Z,17.58
2022-09-03T05:36:50.463Z,17.31
2022-09-03T05:39:24.029Z,17.42
2022-09-03T05:41:54.086Z,17.72
2022-09-03T05:44:25.480Z,17.71
2022-09-03T05:46:55.477Z,17.88
2022-09-03T05:49:25.816Z,17.91
2022-09-03T05:51:55.806Z,18.07
2022-09-03T05:54:27.278Z,18.31
2022-09-03T05:56:56.820Z,18.57
2022-09-03T05:59:27.069Z,18.50
2022-09-03T06:02:00.141Z,18.63
2022-09-03T06:04:33.753Z,18.77
2022-09-03T06:07:03.478Z,18.72
2022-09-03T06:09:34.066Z,18.83
2022-09-03T06:12:04.841Z,18.87
2022-09-03T06:14:36.085Z,19.09
2022-09-03T06:17:04.962Z,19.46
2022-09-03T06:19:33.864Z,19.60
2022-09-03T06:22:04.689Z,19.69
2022-09-03T06:24:33.793Z,19.86
2022-09-03T06:27:04.867Z,19.91
2022-09-03T06:29:40.471Z,20.03
2022-09-03T06:32:11.648Z,20.16
2022-09-03T06:34:42.539Z,20.20
2022-09-03T06:37:12.583Z,20.41
2022-09-03T06:39:40.728Z,20.38
2022-09-03T06:42:09.824Z,20.61
2022-09-03T06:44:47.076Z,20.65
2022-09-03T06:47:15.982Z,20.84
2022-09-03T06:49:45.728Z,20.88
2022-09-03T06:52:16.821Z,20.93
2022-09-03T06:54:50.377Z,20.99
2022-09-03T06:57:19.693Z,21.02
2022-09-03T06:59:50.387Z,21.09
2022-09-03T07:02:23.415Z,21.20
2022-09-03T07:04:54.887Z,21.29
2022-09-03T07:07:24.711Z,21.42
2022-09-03T07:09:55.156Z,21.54
2022-09-03T07:12:25.368Z,21.56
2022-09-03T07:14:57.517Z,21.70
2022-09-03T07:17:29.390Z,21.92
2022-09-03T07:20:01.363Z,21.96
2022-09-03T07:22:31.470Z,22.02
2022-09-03T07:25:05.107Z,22.11
2022-09-03T07:27:35.995Z,22.08
2022-09-03T07:30:09.911Z,22.15
2022-09-03T07:32:41.720Z,21.74
2022-09-03T07:35:17.043Z,21.40
2022-09-03T07:37:47.255Z,21.56
2022-09-03T07:40:20.536Z,22.19
2022-09-03T07:42:55.036Z,21.88
2022-09-03T07:45:26.292Z,22.08
2022-09-03T07:47:58.485Z,22.35
2022-09-03T07:50:31.286Z,22.16
2022-09-03T07:53:01.161Z,22.32
2022-09-03T07:55:32.382Z,22.10
2022-09-03T07:58:01.747Z,22.01
2022-09-03T08:00:34.463Z,22.54
2022-09-03T08:03:09.073Z,22.40
2022-09-03T08:05:39.472Z,22.39
2022-09-03T08:08:10.711Z,22.70
2022-09-03T08:10:45.925Z,22.95
2022-09-03T08:13:17.109Z,22.69
2022-09-03T08:15:56.663Z,23.04
2022-09-03T08:18:32.636Z,23.11
2022-09-03T08:21:02.603Z,23.11
2022-09-03T08:23:32.681Z,23.55
2022-09-03T08:26:03.660Z,23.57
2022-09-03T08:28:34.839Z,23.57
2022-09-03T08:31:13.779Z,23.84
2022-09-03T08:33:49.299Z,23.74
2022-09-03T08:36:25.982Z,23.85
2022-09-03T08:38:57.936Z,24.14
2022-09-03T08:41:51.342Z,23.98
2022-09-03T08:44:40.524Z,23.13
2022-09-03T08:47:23.640Z,22.96
2022-09-03T08:50:10.042Z,23.50
2022-09-03T08:52:52.469Z,24.13
2022-09-03T08:55:28.382Z,24.08
2022-09-03T08:58:01.954Z,24.49
2022-09-03T09:01:06.207Z,24.56
2022-09-03T09:03:48.485Z,24.61
2022-09-03T09:06:47.317Z,24.18
2022-09-03T09:09:23.754Z,24.18
2022-09-03T09:12:41.151Z,24.00
2022-09-03T09:15:37.416Z,24.23
2022-09-03T09:19:10.542Z,24.31
2022-09-03T09:21:51.494Z,24.54
2022-09-03T09:24:27.384Z,24.27
2022-09-03T09:27:04.948Z,24.77
2022-09-03T09:29:38.365Z,25.01
2022-09-03T09:32:10.730Z,25.50
2022-09-03T09:34:42.725Z,25.65
2022-09-03T09:37:17.595Z,25.22
2022-09-03T09:40:02.676Z,25.38
2022-09-03T09:42:32.738Z,25.65
2022-09-03T09:45:13.874Z,25.13
2022-09-03T09:47:43.057Z,25.91
2022-09-03T09:50:25.183Z,26.36
2022-09-03T09:53:09.003Z,26.58
2022-09-03T09:55:53.112Z,26.83
2022-09-03T09:58:24.428Z,26.58
2022-09-03T10:01:15.529Z,26.35
2022-09-03T10:04:01.647Z,26.33
2022-09-03T10:06:50.944Z,25.82
2022-09-03T10:09:26.670Z,25.85
2022-09-03T10:12:38.335Z,25.63
2022-09-03T10:15:31.862Z,26.68
2022-09-03T10:18:16.449Z,26.99
2022-09-03T10:20:55.796Z,27.15
2022-09-03T10:23:28.838Z,27.44
2022-09-03T10:26:15.720Z,27.68
2022-09-03T10:28:46.368Z,27.56
2022-09-03T10:31:41.779Z,27.33
2022-09-03T10:34:18.894Z,27.67
2022-09-03T10:36:55.036Z,27.85
2022-09-03T10:39:26.568Z,28.08
2022-09-03T10:42:22.417Z,28.28
2022-09-03T10:45:00.868Z,27.55
2022-09-03T10:47:51.417Z,27.68
2022-09-03T10:51:06.518Z,27.94
2022-09-03T10:53:58.266Z,26.95
2022-09-03T10:56:40.684Z,27.15
2022-09-03T10:59:29.275Z,27.42
2022-09-03T11:02:26.496Z,27.44
2022-09-03T11:05:08.253Z,27.78
2022-09-03T11:07:56.080Z,27.96
2022-09-03T11:10:31.226Z,27.60
2022-09-03T11:13:05.290Z,27.41
2022-09-03T11:15:42.744Z,27.04
2022-09-03T11:18:35.171Z,27.55
2022-09-03T11:21:11.963Z,26.94
2022-09-03T11:23:46.246Z,25.99
2022-09-03T11:26:18.051Z,26.32
2022-09-03T11:28:51.019Z,26.96
2022-09-03T11:31:25.626Z,27.13
2022-09-03T11:34:05.258Z,26.95
2022-09-03T11:36:38.317Z,26.75
2022-09-03T11:39:21.970Z,26.69
2022-09-03T11:42:09.239Z,26.63
2022-09-03T11:44:45.900Z,27.23
2022-09-03T11:47:24.487Z,28.01
2022-09-03T11:49:54.202Z,28.25
2022-09-03T11:52:32.473Z,28.23
2022-09-03T11:55:00.393Z,28.09
2022-09-03T11:57:31.401Z,27.95
2022-09-03T12:00:15.985Z,27.45
2022-09-03T12:02:56.765Z,27.43
2022-09-03T12:05:39.566Z,27.46
2022-09-03T12:08:31.360Z,27.25
2022-09-03T12:11:18.047Z,27.29
2022-09-03T12:13:52.916Z,27.44
2022-09-03T12:16:33.314Z,27.66
2022-09-03T12:19:04.596Z,27.71
2022-09-03T12:21:39.565Z,27.86
2022-09-03T12:24:12.085Z,27.82
2022-09-03T12:26:42.178Z,27.60
2022-09-03T12:29:28.123Z,27.44
2022-09-03T12:32:07.921Z,27.47
2022-09-03T12:34:38.130Z,27.81
2022-09-03T12:37:19.504Z,27.48
2022-09-03T12:40:09.093Z,27.52
2022-09-03T12:42:39.306Z,27.36
2022-09-03T12:45:12.490Z,27.11
2022-09-03T12:47:43.857Z,27.12
2022-09-03T12:50:20.331Z,26.96
2022-09-03T12:53:00.132Z,27.41
2022-09-03T12:55:57.186Z,27.36
2022-09-03T12:58:35.845Z,27.34
2022-09-03T13:01:17.467Z,27.73
2022-09-03T13:03:58.039Z,27.03
2022-09-03T13:06:50.120Z,27.31
2022-09-03T13:09:22.359Z,27.62
2022-09-03T13:11:52.691Z,27.87
2022-09-03T13:14:21.041Z,28.14
2022-09-03T13:17:14.844Z,27.90
2022-09-03T13:20:11.563Z,27.98
2022-09-03T13:22:57.798Z,28.19
2022-09-03T13:25:46.074Z,27.79
2022-09-03T13:28:21.494Z,28.32
2022-09-03T13:31:01.243Z,28.35
2022-09-03T13:33:38.237Z,27.76
2022-09-03T13:36:19.432Z,27.91
2022-09-03T13:38:53.583Z,28.03
2022-09-03T13:41:38.813Z,27.25
2022-09-03T13:44:22.915Z,27.05
2022-09-03T13:46:59.476Z,27.03
2022-09-03T13:50:02.955Z,26.59
2022-09-03T13:52:43.042Z,26.64
2022-09-03T13:55:33.591Z,26.45
2022-09-03T13:58:11.677Z,26.59
2022-09-03T14:01:04.965Z,26.58
2022-09-03T14:03:48.742Z,27.01
2022-09-03T14:06:26.866Z,27.19
2022-09-03T14:09:16.245Z,27.26
2022-09-03T14:12:03.389Z,27.48
2022-09-03T14:14:49.584Z,27.51
2022-09-03T14:17:59.592Z,27.96
2022-09-03T14:20:38.643Z,28.43
2022-09-03T14:23:30.197Z,27.75
2022-09-03T14:26:04.398Z,28.17
2022-09-03T14:28:38.354Z,28.07
2022-09-03T14:31:31.049Z,28.29
2022-09-03T14:34:08.887Z,28.35
2022-09-03T14:36:42.741Z,28.44
2022-09-03T14:39:32.668Z,28.27
2022-09-03T14:42:31.471Z,28.59
2022-09-03T14:45:09.095Z,28.50
2022-09-03T14:48:02.269Z,28.37
2022-09-03T14:50:58.951Z,28.73
2022-09-03T14:53:34.177Z,28.64
2022-09-03T14:56:15.014Z,28.75
2022-09-03T14:59:21.694Z,29.03
2022-09-03T15:02:08.432Z,29.10
2022-09-03T15:04:57.922Z,28.90
2022-09-03T15:07:55.028Z,29.07
2022-09-03T15:10:33.332Z,29.17
2022-09-03T15:13:10.016Z,28.91
2022-09-03T15:15:41.744Z,29.24
2022-09-03T15:18:31.206Z,29.32
2022-09-03T15:21:34.018Z,29.09
2022-09-03T15:24:17.852Z,28.06
2022-09-03T15:26:59.424Z,28.23
2022-09-03T15:29:46.347Z,28.09
2022-09-03T15:32:55.756Z,27.91
2022-09-03T15:35:42.592Z,27.39
2022-09-03T15:38:45.657Z,28.02
2022-09-03T15:41:35.930Z,27.43
2022-09-03T15:44:09.357Z,27.53
2022-09-03T15:46:51.104Z,27.63
2022-09-03T15:49:45.410Z,27.89
2022-09-03T15:52:29.090Z,27.44
2022-09-03T15:55:09.105Z,27.79
2022-09-03T15:57:54.745Z,27.21
2022-09-03T16:00:23.533Z,27.40
2022-09-03T16:03:07.744Z,27.52
2022-09-03T16:05:57.526Z,27.42
2022-09-03T16:08:48.557Z,27.27
2022-09-03T16:11:34.713Z,27.82
2022-09-03T16:14:18.514Z,27.65
2022-09-03T16:17:28.007Z,27.67
2022-09-03T16:20:05.087Z,27.42
2022-09-03T16:22:55.410Z,26.79
2022-09-03T16:25:35.885Z,26.69
2022-09-03T16:28:15.039Z,26.59
2022-09-03T16:31:00.968Z,26.59
2022-09-03T16:33:57.674Z,26.61
2022-09-03T16:36:32.881Z,26.24
2022-09-03T16:39:16.940Z,26.09
2022-09-03T16:42:03.795Z,25.89
2022-09-03T16:44:58.644Z,26.14
2022-09-03T16:47:43.007Z,26.22
2022-09-03T16:50:48.453Z,26.27
2022-09-03T16:53:29.015Z,26.27
2022-09-03T16:56:36.742Z,26.19
2022-09-03T16:59:12.293Z,26.34
2022-09-03T17:01:59.895Z,26.09
2022-09-03T17:04:40.400Z,25.99
2022-09-03T17:07:18.201Z,25.94
2022-09-03T17:10:21.801Z,26.27
2022-09-03T17:13:14.033Z,25.80
2022-09-03T17:16:04.280Z,25.44
2022-09-03T17:18:56.282Z,25.31
2022-09-03T17:21:47.529Z,25.06
2022-09-03T17:24:26.697Z,24.92
2022-09-03T17:27:23.970Z,24.76
2022-09-03T17:30:17.219Z,24.68
2022-09-03T17:33:24.767Z,24.31
2022-09-03T17:36:27.432Z,24.34
2022-09-03T17:39:21.528Z,24.37
2022-09-03T17:41:54.747Z,24.03
2022-09-03T17:44:48.438Z,23.75
2022-09-03T17:47:19.412Z,23.99
2022-09-03T17:49:54.410Z,23.98
2022-09-03T17:52:28.098Z,24.01
2022-09-03T17:55:03.627Z,24.14
2022-09-03T17:57:47.174Z,24.31
2022-09-03T18:00:31.634Z,24.99
2022-09-03T18:03:14.457Z,24.73
2022-09-03T18:06:08.686Z,24.86
2022-09-03T18:09:01.208Z,25.10
2022-09-03T18:12:00.567Z,25.13
2022-09-03T18:14:34.779Z,25.06
2022-09-03T18:17:11.581Z,24.31
2022-09-03T18:20:09.140Z,24.51
2022-09-03T18:23:04.128Z,24.83
2022-09-03T18:25:54.539Z,24.68
2022-09-03T18:28:48.977Z,24.47
2022-09-03T18:31:36.791Z,24.81
2022-09-03T18:34:28.063Z,24.56
2022-09-03T18:37:17.240Z,24.35
2022-09-03T18:40:05.280Z,23.98
2022-09-03T18:43:05.871Z,23.68
2022-09-03T18:49:31.029Z,24.06
2022-09-03T18:52:48.090Z,23.48
2022-09-03T18:56:04.455Z,23.41
2022-09-03T18:59:09.736Z,23.37
2022-09-03T19:01:59.331Z,23.65
2022-09-03T19:05:32.512Z,23.23
2022-09-03T19:08:32.489Z,23.06
2022-09-03T19:11:27.333Z,22.77
2022-09-03T19:14:17.050Z,23.12
2022-09-03T19:17:07.257Z,22.66
2022-09-03T19:20:33.426Z,22.67
2022-09-03T19:23:21.656Z,23.23
2022-09-03T19:26:11.084Z,23.22
2022-09-03T19:29:03.625Z,22.82
2022-09-03T19:32:02.745Z,22.37
2022-09-03T19:35:20.052Z,22.38
2022-09-03T19:38:35.334Z,22.83
2022-09-03T19:41:48.367Z,22.97
2022-09-03T19:44:59.921Z,22.85
2022-09-03T19:48:04.006Z,22.74
2022-09-03T19:50:57.224Z,22.74
2022-09-03T19:53:45.320Z,22.55
2022-09-03T19:56:42.731Z,22.63
2022-09-03T19:59:43.067Z,22.72
2022-09-03T20:02:31.102Z,22.78
2022-09-03T20:05:20.640Z,22.65
2022-09-03T20:08:10.446Z,22.61
2022-09-03T20:10:43.941Z,22.48
2022-09-03T20:13:15.123Z,22.40
2022-09-03T20:16:01.167Z,22.47
2022-09-03T20:18:56.142Z,21.82
2022-09-03T20:21:31.022Z,21.86
2022-09-03T20:24:34.379Z,21.73
2022-09-03T20:27:26.629Z,21.72
2022-09-03T20:30:13.762Z,21.93
2022-09-03T20:32:45.334Z,21.53
2022-09-03T20:35:20.813Z,21.52
2022-09-03T20:38:04.546Z,21.49
2022-09-03T20:40:59.650Z,21.79
2022-09-03T20:43:41.833Z,21.43
2022-09-03T20:46:35.415Z,21.12
2022-09-03T20:49:38.084Z,21.14
2022-09-03T20:52:12.379Z,21.49
2022-09-03T20:55:03.395Z,21.33
2022-09-03T20:57:38.424Z,20.84
2022-09-03T21:00:14.135Z,21.33
2022-09-03T21:02:48.517Z,21.24
2022-09-03T21:05:25.576Z,21.25
2022-09-03T21:08:06.368Z,21.12
2022-09-03T21:11:06.394Z,21.32
2022-09-03T21:13:41.006Z,21.11
2022-09-03T21:16:24.626Z,20.98
2022-09-03T21:18:55.723Z,20.64
2022-09-03T21:21:38.494Z,20.91
2022-09-03T21:24:18.787Z,21.06
2022-09-03T21:26:54.115Z,20.84
2022-09-03T21:29:33.309Z,20.73
2022-09-03T21:32:08.863Z,20.50
2022-09-03T21:35:03.932Z,20.62
2022-09-03T21:37:40.130Z,20.46
2022-09-03T21:40:09.858Z,20.41
2022-09-03T21:43:24.312Z,20.59
2022-09-03T21:45:53.966Z,20.61
2022-09-03T21:48:27.682Z,20.50
2022-09-03T21:50:57.977Z,20.18
2022-09-03T21:53:38.963Z,20.26
2022-09-03T21:56:48.098Z,20.47
2022-09-03T21:59:32.412Z,20.31
2022-09-03T22:02:04.658Z,20.02
2022-09-03T22:04:34.402Z,19.80
2022-09-03T22:07:20.862Z,20.36
2022-09-03T22:09:56.662Z,20.12
2022-09-03T22:12:40.480Z,20.01
2022-09-03T22:15:14.877Z,20.16
2022-09-03T22:18:02.290Z,19.76
2022-09-03T22:20:36.602Z,19.97
2022-09-03T22:23:21.088Z,20.03
2022-09-03T22:26:20.842Z,20.08
2022-09-03T22:29:08.583Z,20.25
2022-09-03T22:31:47.182Z,20.04
2022-09-03T22:34:58.330Z,20.32
2022-09-03T22:37:38.197Z,20.23
2022-09-03T22:40:37.499Z,19.92
2022-09-03T22:43:18.710Z,20.26
2022-09-03T22:46:14.571Z,20.02
2022-09-03T22:49:00.577Z,20.09
2022-09-03T22:51:40.800Z,20.26
2022-09-03T22:54:30.442Z,19.72
2022-09-03T22:57:05.983Z,20.09
2022-09-03T23:00:09.922Z,20.18
2022-09-03T23:02:39.611Z,20.35
2022-09-03T23:05:34.534Z,20.00
2022-09-03T23:08:12.966Z,20.11
2022-09-03T23:11:23.897Z,19.90
2022-09-03T23:14:15.480Z,19.62
2022-09-03T23:16:51.669Z,19.68
2022-09-03T23:19:41.440Z,19.44
2022-09-03T23:22:19.002Z,19.66
2022-09-03T23:24:59.795Z,19.83
2022-09-03T23:27:44.121Z,19.71
2022-09-03T23:30:14.916Z,20.01
2022-09-03T23:32:48.122Z,19.92
2022-09-03T23:35:20.048Z,19.46
2022-09-03T23:38:00.571Z,19.26
2022-09-03T23:40:44.372Z,19.26
2022-09-03T23:43:30.308Z,19.15
2022-09-03T23:46:18.604Z,19.67
2022-09-03T23:48:55.061Z,19.30
2022-09-03T23:51:40.898Z,19.65
2022-09-03T23:54:32.243Z,19.77
2022-09-03T23:57:32.804Z,19.56
